createdAt,value
2022-08-28T00:00:05.896Z,28.1
2022-08-28T00:05:24.370Z,28.1
2022-08-28T00:10:42.575Z,28.2
2022-08-28T00:16:01.174Z,28.2
2022-08-28T00:21:19.604Z,28.2
2022-08-28T00:26:38.089Z,28.2
2022-08-28T00:31:56.300Z,28.2
2022-08-28T00:37:14.226Z,28.2
2022-08-28T00:42:32.710Z,28.2
2022-08-28T00:47:51.193Z,28.2
2022-08-28T00:53:09.398Z,28.2
2022-08-28T00:58:27.888Z,28.2
2022-08-28T01:03:46.360Z,28.3
2022-08-28T01:09:05.124Z,28.2
2022-08-28T01:14:23.878Z,28.3
2022-08-28T01:19:42.356Z,28.3
2022-08-28T01:25:00.565Z,28.3
2022-08-28T01:30:19.332Z,28.3
2022-08-28T01:35:37.817Z,28.3
2022-08-28T01:40:56.595Z,28.3
2022-08-28T01:46:15.235Z,28.4
2022-08-28T01:51:38.307Z,28.3
2022-08-28T01:56:57.029Z,28.3
2022-08-28T02:02:15.782Z,28.4
2022-08-28T02:07:33.704Z,28.4
2022-08-28T02:12:51.629Z,28.4
2022-08-28T02:18:10.064Z,28.4
2022-08-28T02:23:28.533Z,28.4
2022-08-28T02:28:47.022Z,28.4
2022-08-28T02:34:05.780Z,28.4
2022-08-28T02:39:24.261Z,28.3
2022-08-28T02:44:42.458Z,28.3
2022-08-28T02:50:00.941Z,28.4
2022-08-28T02:55:19.424Z,28.4
2022-08-28T03:00:37.920Z,28.4
2022-08-28T03:05:56.119Z,28.3
2022-08-28T03:11:14.613Z,28.3
2022-08-28T03:16:32.946Z,28.3
2022-08-28T03:21:53.111Z,28.3
2022-08-28T03:27:11.878Z,28.3
2022-08-28T03:32:30.649Z,28.3
2022-08-28T03:37:49.133Z,28.3
2022-08-28T03:43:07.497Z,28.3
2022-08-28T03:48:25.706Z,28.3
2022-08-28T03:53:43.913Z,28.3
2022-08-28T03:59:02.390Z,28.3
2022-08-28T04:04:21.163Z,28.3
2022-08-28T04:09:39.935Z,28.3
2022-08-28T04:14:58.136Z,28.3
2022-08-28T04:20:16.909Z,28.3
2022-08-28T04:25:35.123Z,28.3
2022-08-28T04:30:53.596Z,28.3
2022-08-28T04:36:12.357Z,28.4
2022-08-28T04:41:30.845Z,28.3
2022-08-28T04:46:49.498Z,28.3
2022-08-28T04:52:09.002Z,28.3
2022-08-28T04:57:27.476Z,28.3
2022-08-28T05:02:45.960Z,28.3
2022-08-28T05:08:04.447Z,28.3
2022-08-28T05:13:23.213Z,28.3
2022-08-28T05:18:41.685Z,28.3
2022-08-28T05:23:59.897Z,28.3
2022-08-28T05:29:18.087Z,28.3
2022-08-28T05:34:36.576Z,28.3
2022-08-28T05:39:55.394Z,28.3
2022-08-28T05:45:13.312Z,28.3
2022-08-28T05:50:31.517Z,28.4
2022-08-28T05:55:52.116Z,28.4
2022-08-28T06:01:10.880Z,28.4
2022-08-28T06:06:28.803Z,28.4
2022-08-28T06:11:47.285Z,28.4
2022-08-28T06:17:05.488Z,28.4
2022-08-28T06:22:23.700Z,28.4
2022-08-28T06:27:42.178Z,28.5
2022-08-28T06:33:00.350Z,28.5
2022-08-28T06:38:19.074Z,28.5
2022-08-28T06:43:37.554Z,28.5
2022-08-28T06:48:56.307Z,28.5
2022-08-28T06:54:23.057Z,28.5
2022-08-28T06:59:42.072Z,28.4
2022-08-28T07:05:00.507Z,28.5
2022-08-28T07:10:19.069Z,28.6
2022-08-28T07:15:42.202Z,28.6
2022-08-28T07:21:00.403Z,28.6
2022-08-28T07:26:19.132Z,28.6
2022-08-28T07:31:38.062Z,28.7
2022-08-28T07:36:56.447Z,28.7
2022-08-28T07:42:14.610Z,28.7
2022-08-28T07:47:33.091Z,28.7
2022-08-28T07:52:51.545Z,28.7
2022-08-28T07:58:10.127Z,28.7
2022-08-28T08:03:28.210Z,28.7
2022-08-28T08:08:46.390Z,28.7
2022-08-28T08:14:06.071Z,28.7
2022-08-28T08:19:24.822Z,28.7
2022-08-28T08:24:43.579Z,28.7
2022-08-28T08:30:02.020Z,28.8
2022-08-28T08:35:20.503Z,28.7
2022-08-28T08:40:39.392Z,28.7
2022-08-28T08:45:58.039Z,28.7
2022-08-28T08:51:16.766Z,28.7
2022-08-28T08:56:35.813Z,28.7
2022-08-28T09:01:54.615Z,28.7
2022-08-28T09:07:13.101Z,28.7
2022-08-28T09:12:31.821Z,28.7
2022-08-28T09:17:50.298Z,28.8
2022-08-28T09:23:13.584Z,28.7
2022-08-28T09:28:33.150Z,28.7
2022-08-28T09:33:51.634Z,28.7
2022-08-28T09:39:09.839Z,28.7
2022-08-28T09:44:28.333Z,28.7
2022-08-28T09:49:46.508Z,28.8
2022-08-28T09:55:05.249Z,28.8
2022-08-28T11:28:46.885Z,28.9
2022-08-28T11:34:05.092Z,28.9
2022-08-28T11:39:23.829Z,28.9
2022-08-28T11:44:42.348Z,28.9
2022-08-28T11:50:03.212Z,28.9
2022-08-28T11:55:21.683Z,28.9
2022-08-28T12:00:40.436Z,28.9
2022-08-28T12:05:58.938Z,28.9
2022-08-28T12:11:17.684Z,28.9
2022-08-28T12:16:36.418Z,28.9
2022-08-28T12:21:55.218Z,28.9
2022-08-28T12:27:13.970Z,28.9
2022-08-28T12:32:32.183Z,28.9
2022-08-28T12:37:53.486Z,28.9
2022-08-28T12:43:15.829Z,28.9
2022-08-28T12:48:34.743Z,28.9
2022-08-28T12:53:53.506Z,28.9
2022-08-28T12:59:11.989Z,28.9
2022-08-28T13:04:31.878Z,28.9
2022-08-28T13:09:50.526Z,28.9
2022-08-28T13:15:08.992Z,28.9
2022-08-28T13:20:27.159Z,28.9
2022-08-28T13:25:45.905Z,28.9
2022-08-28T13:31:04.076Z,28.9
2022-08-28T13:36:22.555Z,28.9
2022-08-28T13:41:40.829Z,28.9
2022-08-28T13:46:59.099Z,28.9
2022-08-28T13:52:17.551Z,29
2022-08-28T13:57:36.950Z,29
2022-08-28T14:02:55.423Z,29
2022-08-28T14:08:14.179Z,29.1
2022-08-28T14:13:32.666Z,29.1
2022-08-28T14:18:51.144Z,29.1
2022-08-28T14:24:09.897Z,29.1
2022-08-28T14:29:28.667Z,29.1
2022-08-28T14:34:47.432Z,29.1
2022-08-28T14:40:05.678Z,29.1
2022-08-28T14:45:23.686Z,29.2
2022-08-28T14:50:41.892Z,29.2
2022-08-28T14:56:00.369Z,29.1
2022-08-28T15:01:19.485Z,29.1
2022-08-28T15:06:38.307Z,29.1
2022-08-28T15:11:57.063Z,29.1
2022-08-28T15:17:15.255Z,29.1
2022-08-28T15:22:33.185Z,29.1
2022-08-28T15:27:51.360Z,29.1
2022-08-28T15:33:09.869Z,29.1
2022-08-28T15:38:28.030Z,29.1
2022-08-28T15:43:48.318Z,29.1
2022-08-28T15:49:09.481Z,29.1
2022-08-28T15:54:28.991Z,29.1
2022-08-28T15:59:50.726Z,29.1
2022-08-28T16:05:08.716Z,29.1
2022-08-28T16:10:27.439Z,29.1
2022-08-28T16:15:45.879Z,29.1
2022-08-28T16:21:05.653Z,29.1
2022-08-28T16:26:23.535Z,29.1
2022-08-28T16:31:41.569Z,29.1
2022-08-28T16:36:59.969Z,29.1
2022-08-28T16:42:18.414Z,29.1
2022-08-28T16:47:36.856Z,29.1
2022-08-28T16:52:55.606Z,29.1
2022-08-28T16:58:17.546Z,29.1
2022-08-28T17:03:36.246Z,29.1
2022-08-28T17:08:57.451Z,29
2022-08-28T17:14:15.613Z,29
2022-08-28T17:19:34.086Z,29
2022-08-28T17:24:53.273Z,29
2022-08-28T17:30:11.750Z,29
2022-08-28T17:35:30.225Z,29
2022-08-28T17:40:48.402Z,29
2022-08-28T17:46:07.019Z,29
2022-08-28T17:51:44.201Z,29
2022-08-28T17:57:02.590Z,29
2022-08-28T18:02:21.040Z,29
2022-08-28T18:07:39.490Z,29
2022-08-28T18:12:57.940Z,29
2022-08-28T18:18:16.789Z,29
2022-08-28T18:23:35.682Z,29
2022-08-28T18:28:54.338Z,29
2022-08-28T18:34:12.689Z,29
2022-08-28T18:39:31.321Z,29
2022-08-28T18:44:51.091Z,29
2022-08-28T18:50:10.005Z,29
2022-08-28T18:55:32.044Z,29
2022-08-28T19:00:50.763Z,29
2022-08-28T19:06:09.267Z,28.9
2022-08-28T19:11:27.743Z,29
2022-08-28T19:16:46.237Z,28.9
2022-08-28T19:22:04.985Z,28.9
2022-08-28T19:27:23.489Z,28.9
2022-08-28T19:32:42.233Z,28.9
2022-08-28T19:38:00.990Z,28.9
2022-08-28T19:43:19.744Z,28.9
2022-08-28T19:48:39.039Z,28.9
2022-08-28T19:53:59.228Z,28.9
2022-08-28T19:59:17.795Z,28.9
2022-08-28T20:04:36.207Z,28.9
2022-08-28T20:09:54.690Z,28.9
2022-08-28T20:15:16.404Z,29
2022-08-28T20:20:34.887Z,29
2022-08-28T20:25:53.362Z,28.9
2022-08-28T20:31:12.270Z,29
2022-08-28T20:36:30.753Z,29
2022-08-28T20:41:48.928Z,29
2022-08-28T20:47:08.754Z,29
2022-08-28T20:52:27.394Z,29
2022-08-28T20:57:45.860Z,29
2022-08-28T21:03:04.463Z,29
2022-08-28T21:08:22.928Z,29
2022-08-28T21:13:41.144Z,29
2022-08-28T21:19:16.655Z,29
2022-08-28T21:24:35.320Z,29
2022-08-28T21:29:53.774Z,29
2022-08-28T21:35:12.265Z,29
2022-08-28T21:40:30.812Z,29
2022-08-28T21:45:49.250Z,29
2022-08-28T21:51:07.654Z,29
2022-08-28T21:56:26.418Z,28.9
2022-08-28T22:01:45.135Z,28.9
2022-08-28T22:07:03.849Z,28.9
2022-08-28T22:12:21.783Z,28.9
2022-08-28T22:17:40.540Z,28.9
2022-08-28T22:22:59.021Z,28.9
2022-08-28T22:28:17.221Z,28.9
2022-08-28T22:33:35.709Z,28.8
2022-08-28T22:38:54.192Z,28.8
2022-08-28T22:44:12.681Z,28.8
2022-08-28T22:49:31.447Z,28.8
2022-08-28T22:54:53.442Z,28.8
2022-08-28T23:00:11.652Z,28.8
2022-08-28T23:05:30.412Z,28.9
2022-08-28T23:10:59.745Z,28.9
2022-08-28T23:16:18.168Z,28.9
2022-08-28T23:21:44.052Z,28.9
2022-08-28T23:27:36.017Z,28.9
2022-08-28T23:32:54.826Z,28.9
2022-08-28T23:38:13.663Z,28.9
2022-08-28T23:43:32.566Z,28.9
2022-08-28T23:48:51.769Z,28.9
2022-08-28T23:54:10.815Z,28.9
2022-08-28T23:59:29.024Z,28.9
